Acworth, NH (03601)

12:48 PM EDT on July 07, 2015 (GMT -0400)
Beaudry Development | | Change Station
CLOSE
Current Station
Personal Weather Station
Location: Charlestown, NH
Elevation: 600 ft
Nearby Weather Stations

Elev 600 ft 43.26 °N, 72.40 °W | Updated 3 seconds ago

Overcast
Overcast
77.5 °F
Feels Like 79 °F
N
0.0
Wind Variable Wind from North
Gusts 2.0 mph

Today
High -- | Low -- °F
--% Chance of Precip.
Yesterday
High -- | Low -- °F
Precip. -- in
5:16 AM 8:31 PM
Waning Gibbous, 63% visible
Pressure 30.02 in
Visibility 10.0 miles
Clouds Scattered Clouds 2300 ft
Mostly Cloudy 2700 ft
Mostly Cloudy 5000 ft
Heat Index 79 °F
Dew Point 71 °F
Humidity 80%
Rainfall 0.00 in
Snow Depth Not available.
UV 6 out of 12
Pollen 1.60 out of 12
Air Quality Not available.
Flu Activity Not available.
METAR KVSF 071554Z AUTO 17008G17KT 10SM SCT023 BKN027 BKN050 25/19 A3002 RMK AO2 SLP166 T02500194 TSNO

More Conditions Fewer Conditions

Pressure 30.02 in
Visibility 10.0 miles
Clouds Scattered Clouds 2300 ft
Mostly Cloudy 2700 ft
Mostly Cloudy 5000 ft
Heat Index 79 °F
Dew Point 71 °F
Humidity 80%
Rainfall 0.00 in
Snow Depth Not available.
UV 6 out of 12
Pollen 1.60 out of 12
Air Quality Not available.
Flu Activity Not available.
METAR KVSF 071554Z AUTO 17008G17KT 10SM SCT023 BKN027 BKN050 25/19 A3002 RMK AO2 SLP166 T02500194 TSNO

More Conditions Fewer Conditions

10-Day Weather Forecast

×

Almanac

Astronomy

Jul. 07, 2015 Rise Set
Actual Time
Civil Twilight
Nautical Twilight
Astronomical Twilight
Moon
Length of Visible Light
Length of Day
Tomorrow will be .
, % of the Moon is Illuminated

Today's Extremes

State Highs State Lows

Community

WunderPhotos

Upload Photos

1,835,849 photos uploaded!

WunderBlogs® & News

Nearby

Air Quality

  Air Quality AQ Index Pollutant
Not available.

Snow Depth

Station Depth Elevation

Earthquake Activity

City Distance Mag. Time & Date
Minimum magnitude displayed is 2.5.

Coastal Water Temperatures

Place Temperature

Stations

Nearby Weather Stations

Station Location Temp. Windchill Dew Point Humidity Wind Precip. Elev Updated Type